sensor_id;sensor_type;location;lat;lon;timestamp;P1;durP1;ratioP1;P2;durP2;ratioP2
4061;SDS011;2046;47.064;15.456;2023-02-26T00:01:17;1.27;;;0.88;;
4061;SDS011;2046;47.064;15.456;2023-02-26T00:03:43;1.30;;;1.20;;
4061;SDS011;2046;47.064;15.456;2023-02-26T00:06:13;1.15;;;1.08;;
4061;SDS011;2046;47.064;15.456;2023-02-26T00:08:40;1.42;;;1.17;;
4061;SDS011;2046;47.064;15.456;2023-02-26T00:11:07;1.33;;;1.20;;
4061;SDS011;2046;47.064;15.456;2023-02-26T00:13:38;1.10;;;1.10;;
4061;SDS011;2046;47.064;15.456;2023-02-26T00:16:10;1.38;;;0.88;;
4061;SDS011;2046;47.064;15.456;2023-02-26T00:18:38;1.10;;;1.00;;
4061;SDS011;2046;47.064;15.456;2023-02-26T00:21:05;1.23;;;1.13;;
4061;SDS011;2046;47.064;15.456;2023-02-26T00:23:32;1.25;;;1.00;;
4061;SDS011;2046;47.064;15.456;2023-02-26T00:25:59;1.15;;;1.08;;
4061;SDS011;2046;47.064;15.456;2023-02-26T00:28:25;0.90;;;0.90;;
4061;SDS011;2046;47.064;15.456;2023-02-26T00:30:52;0.93;;;0.93;;
4061;SDS011;2046;47.064;15.456;2023-02-26T00:33:19;1.38;;;1.05;;
4061;SDS011;2046;47.064;15.456;2023-02-26T00:35:46;0.90;;;0.90;;
4061;SDS011;2046;47.064;15.456;2023-02-26T00:38:12;0.70;;;0.70;;
4061;SDS011;2046;47.064;15.456;2023-02-26T00:40:42;1.10;;;1.00;;
4061;SDS011;2046;47.064;15.456;2023-02-26T00:43:19;0.90;;;0.90;;
4061;SDS011;2046;47.064;15.456;2023-02-26T00:51:11;1.00;;;1.00;;
4061;SDS011;2046;47.064;15.456;2023-02-26T00:53:35;1.10;;;0.90;;
4061;SDS011;2046;47.064;15.456;2023-02-26T00:56:04;0.82;;;0.80;;
4061;SDS011;2046;47.064;15.456;2023-02-26T00:58:31;0.98;;;0.90;;
4061;SDS011;2046;47.064;15.456;2023-02-26T01:00:58;0.93;;;0.93;;
4061;SDS011;2046;47.064;15.456;2023-02-26T01:03:25;1.20;;;1.10;;
4061;SDS011;2046;47.064;15.456;2023-02-26T01:05:51;0.95;;;0.90;;
4061;SDS011;2046;47.064;15.456;2023-02-26T01:08:31;0.80;;;0.80;;
4061;SDS011;2046;47.064;15.456;2023-02-26T01:10:59;0.73;;;0.73;;
4061;SDS011;2046;47.064;15.456;2023-02-26T01:13:26;1.52;;;0.90;;
4061;SDS011;2046;47.064;15.456;2023-02-26T01:15:54;0.80;;;0.80;;
4061;SDS011;2046;47.064;15.456;2023-02-26T01:18:27;1.05;;;0.90;;
4061;SDS011;2046;47.064;15.456;2023-02-26T01:20:58;0.75;;;0.70;;
4061;SDS011;2046;47.064;15.456;2023-02-26T01:23:26;0.70;;;0.70;;
4061;SDS011;2046;47.064;15.456;2023-02-26T01:25:57;0.70;;;0.70;;
4061;SDS011;2046;47.064;15.456;2023-02-26T01:28:25;1.00;;;0.90;;
4061;SDS011;2046;47.064;15.456;2023-02-26T01:30:52;0.77;;;0.77;;
4061;SDS011;2046;47.064;15.456;2023-02-26T01:33:21;0.90;;;0.90;;
4061;SDS011;2046;47.064;15.456;2023-02-26T01:41:02;0.95;;;0.95;;
4061;SDS011;2046;47.064;15.456;2023-02-26T01:43:38;0.80;;;0.80;;
4061;SDS011;2046;47.064;15.456;2023-02-26T01:46:53;0.95;;;0.90;;
4061;SDS011;2046;47.064;15.456;2023-02-26T01:49:00;0.80;;;0.80;;
4061;SDS011;2046;47.064;15.456;2023-02-26T01:54:32;0.80;;;0.80;;
4061;SDS011;2046;47.064;15.456;2023-02-26T01:57:13;0.90;;;0.80;;
4061;SDS011;2046;47.064;15.456;2023-02-26T01:59:44;0.80;;;0.80;;
4061;SDS011;2046;47.064;15.456;2023-02-26T02:02:12;0.77;;;0.70;;
4061;SDS011;2046;47.064;15.456;2023-02-26T02:04:40;1.50;;;0.80;;
4061;SDS011;2046;47.064;15.456;2023-02-26T02:07:07;0.90;;;0.90;;
4061;SDS011;2046;47.064;15.456;2023-02-26T02:09:34;0.73;;;0.73;;
4061;SDS011;2046;47.064;15.456;2023-02-26T02:12:23;0.93;;;0.80;;
4061;SDS011;2046;47.064;15.456;2023-02-26T02:17:22;1.08;;;0.90;;
4061;SDS011;2046;47.064;15.456;2023-02-26T02:22:44;0.63;;;0.63;;
4061;SDS011;2046;47.064;15.456;2023-02-26T02:30:55;0.85;;;0.82;;
4061;SDS011;2046;47.064;15.456;2023-02-26T02:33:26;0.75;;;0.75;;
4061;SDS011;2046;47.064;15.456;2023-02-26T02:35:58;0.70;;;0.70;;
4061;SDS011;2046;47.064;15.456;2023-02-26T02:38:34;0.70;;;0.70;;
4061;SDS011;2046;47.064;15.456;2023-02-26T02:41:04;0.77;;;0.77;;
4061;SDS011;2046;47.064;15.456;2023-02-26T02:43:32;0.63;;;0.63;;
4061;SDS011;2046;47.064;15.456;2023-02-26T02:46:04;0.70;;;0.70;;
4061;SDS011;2046;47.064;15.456;2023-02-26T02:48:32;1.00;;;0.90;;
4061;SDS011;2046;47.064;15.456;2023-02-26T02:51:05;1.10;;;1.00;;
4061;SDS011;2046;47.064;15.456;2023-02-26T02:53:36;0.80;;;0.80;;
4061;SDS011;2046;47.064;15.456;2023-02-26T02:56:09;0.70;;;0.70;;
4061;SDS011;2046;47.064;15.456;2023-02-26T02:58:39;0.80;;;0.80;;
4061;SDS011;2046;47.064;15.456;2023-02-26T03:01:08;0.70;;;0.70;;
4061;SDS011;2046;47.064;15.456;2023-02-26T03:06:20;0.60;;;0.60;;
4061;SDS011;2046;47.064;15.456;2023-02-26T03:08:47;0.80;;;0.80;;
4061;SDS011;2046;47.064;15.456;2023-02-26T03:11:14;0.93;;;0.90;;
4061;SDS011;2046;47.064;15.456;2023-02-26T03:13:41;1.00;;;1.00;;
4061;SDS011;2046;47.064;15.456;2023-02-26T03:18:49;0.73;;;0.73;;
4061;SDS011;2046;47.064;15.456;2023-02-26T03:21:25;0.98;;;0.93;;
4061;SDS011;2046;47.064;15.456;2023-02-26T03:23:56;0.60;;;0.60;;
4061;SDS011;2046;47.064;15.456;2023-02-26T03:26:36;0.65;;;0.65;;
4061;SDS011;2046;47.064;15.456;2023-02-26T03:29:10;0.93;;;0.93;;
4061;SDS011;2046;47.064;15.456;2023-02-26T03:31:53;1.20;;;0.80;;
4061;SDS011;2046;47.064;15.456;2023-02-26T03:39:17;0.60;;;0.60;;
4061;SDS011;2046;47.064;15.456;2023-02-26T03:42:00;0.60;;;0.60;;
4061;SDS011;2046;47.064;15.456;2023-02-26T03:44:29;0.60;;;0.60;;
4061;SDS011;2046;47.064;15.456;2023-02-26T03:46:58;0.75;;;0.75;;
4061;SDS011;2046;47.064;15.456;2023-02-26T03:49:42;1.33;;;0.68;;
4061;SDS011;2046;47.064;15.456;2023-02-26T03:52:10;1.00;;;1.00;;
4061;SDS011;2046;47.064;15.456;2023-02-26T03:54:48;0.60;;;0.60;;
4061;SDS011;2046;47.064;15.456;2023-02-26T03:57:17;0.80;;;0.80;;
4061;SDS011;2046;47.064;15.456;2023-02-26T03:59:44;0.63;;;0.63;;
4061;SDS011;2046;47.064;15.456;2023-02-26T04:02:11;0.68;;;0.68;;
4061;SDS011;2046;47.064;15.456;2023-02-26T04:04:59;0.80;;;0.80;;
4061;SDS011;2046;47.064;15.456;2023-02-26T04:07:27;0.82;;;0.70;;
4061;SDS011;2046;47.064;15.456;2023-02-26T04:09:54;0.60;;;0.60;;
4061;SDS011;2046;47.064;15.456;2023-02-26T04:12:21;0.60;;;0.60;;
4061;SDS011;2046;47.064;15.456;2023-02-26T04:14:49;3.03;;;1.27;;
4061;SDS011;2046;47.064;15.456;2023-02-26T04:17:16;0.50;;;0.50;;
4061;SDS011;2046;47.064;15.456;2023-02-26T04:19:44;0.63;;;0.63;;
4061;SDS011;2046;47.064;15.456;2023-02-26T04:22:10;0.52;;;0.52;;
4061;SDS011;2046;47.064;15.456;2023-02-26T04:24:37;0.47;;;0.43;;
4061;SDS011;2046;47.064;15.456;2023-02-26T04:27:04;0.50;;;0.50;;
4061;SDS011;2046;47.064;15.456;2023-02-26T04:29:30;0.85;;;0.60;;
4061;SDS011;2046;47.064;15.456;2023-02-26T04:31:57;0.43;;;0.43;;
4061;SDS011;2046;47.064;15.456;2023-02-26T04:34:24;0.95;;;0.90;;
4061;SDS011;2046;47.064;15.456;2023-02-26T04:36:50;0.60;;;0.60;;
4061;SDS011;2046;47.064;15.456;2023-02-26T04:39:17;0.70;;;0.70;;
4061;SDS011;2046;47.064;15.456;2023-02-26T04:41:43;0.95;;;0.60;;
4061;SDS011;2046;47.064;15.456;2023-02-26T04:44:10;0.60;;;0.60;;
4061;SDS011;2046;47.064;15.456;2023-02-26T04:46:37;0.70;;;0.70;;
4061;SDS011;2046;47.064;15.456;2023-02-26T04:49:03;0.50;;;0.50;;
4061;SDS011;2046;47.064;15.456;2023-02-26T04:51:30;0.73;;;0.65;;
4061;SDS011;2046;47.064;15.456;2023-02-26T04:53:56;0.60;;;0.60;;
4061;SDS011;2046;47.064;15.456;2023-02-26T04:56:23;0.75;;;0.75;;
4061;SDS011;2046;47.064;15.456;2023-02-26T04:58:50;0.75;;;0.75;;
4061;SDS011;2046;47.064;15.456;2023-02-26T05:01:16;0.50;;;0.50;;
4061;SDS011;2046;47.064;15.456;2023-02-26T05:03:43;0.60;;;0.60;;
4061;SDS011;2046;47.064;15.456;2023-02-26T05:06:09;0.60;;;0.60;;
4061;SDS011;2046;47.064;15.456;2023-02-26T05:08:36;0.60;;;0.60;;
4061;SDS011;2046;47.064;15.456;2023-02-26T05:11:10;0.70;;;0.70;;
4061;SDS011;2046;47.064;15.456;2023-02-26T05:13:36;0.70;;;0.70;;
4061;SDS011;2046;47.064;15.456;2023-02-26T05:16:04;1.33;;;0.60;;
4061;SDS011;2046;47.064;15.456;2023-02-26T05:18:30;0.80;;;0.80;;
4061;SDS011;2046;47.064;15.456;2023-02-26T05:20:58;0.90;;;0.90;;
4061;SDS011;2046;47.064;15.456;2023-02-26T05:23:25;0.60;;;0.60;;
4061;SDS011;2046;47.064;15.456;2023-02-26T05:25:54;0.50;;;0.50;;
4061;SDS011;2046;47.064;15.456;2023-02-26T05:28:20;0.88;;;0.65;;
4061;SDS011;2046;47.064;15.456;2023-02-26T05:30:47;0.60;;;0.60;;
4061;SDS011;2046;47.064;15.456;2023-02-26T05:33:13;0.80;;;0.70;;
4061;SDS011;2046;47.064;15.456;2023-02-26T05:35:40;0.45;;;0.45;;
4061;SDS011;2046;47.064;15.456;2023-02-26T05:38:06;0.70;;;0.60;;
4061;SDS011;2046;47.064;15.456;2023-02-26T05:40:33;0.47;;;0.47;;
4061;SDS011;2046;47.064;15.456;2023-02-26T05:43:00;0.50;;;0.50;;
4061;SDS011;2046;47.064;15.456;2023-02-26T05:45:26;0.65;;;0.65;;
4061;SDS011;2046;47.064;15.456;2023-02-26T05:47:52;0.50;;;0.50;;
4061;SDS011;2046;47.064;15.456;2023-02-26T05:50:19;0.70;;;0.70;;
4061;SDS011;2046;47.064;15.456;2023-02-26T05:52:45;0.47;;;0.47;;
4061;SDS011;2046;47.064;15.456;2023-02-26T05:55:12;0.50;;;0.50;;
4061;SDS011;2046;47.064;15.456;2023-02-26T05:57:38;1.83;;;0.60;;
4061;SDS011;2046;47.064;15.456;2023-02-26T06:00:06;0.60;;;0.60;;
4061;SDS011;2046;47.064;15.456;2023-02-26T06:02:33;0.70;;;0.70;;
4061;SDS011;2046;47.064;15.456;2023-02-26T06:04:59;0.52;;;0.52;;
4061;SDS011;2046;47.064;15.456;2023-02-26T06:07:26;0.85;;;0.85;;
4061;SDS011;2046;47.064;15.456;2023-02-26T06:09:52;0.77;;;0.77;;
4061;SDS011;2046;47.064;15.456;2023-02-26T06:12:19;0.50;;;0.50;;
4061;SDS011;2046;47.064;15.456;2023-02-26T06:14:45;0.50;;;0.50;;
4061;SDS011;2046;47.064;15.456;2023-02-26T06:17:11;0.63;;;0.63;;
4061;SDS011;2046;47.064;15.456;2023-02-26T06:19:38;0.50;;;0.50;;
4061;SDS011;2046;47.064;15.456;2023-02-26T06:22:04;0.65;;;0.65;;
4061;SDS011;2046;47.064;15.456;2023-02-26T06:24:31;0.60;;;0.60;;
4061;SDS011;2046;47.064;15.456;2023-02-26T06:26:58;0.50;;;0.50;;
4061;SDS011;2046;47.064;15.456;2023-02-26T06:29:24;0.80;;;0.63;;
4061;SDS011;2046;47.064;15.456;2023-02-26T06:31:51;1.20;;;0.73;;
4061;SDS011;2046;47.064;15.456;2023-02-26T06:34:17;0.50;;;0.50;;
4061;SDS011;2046;47.064;15.456;2023-02-26T06:36:44;0.70;;;0.70;;
4061;SDS011;2046;47.064;15.456;2023-02-26T06:39:10;0.85;;;0.85;;
4061;SDS011;2046;47.064;15.456;2023-02-26T06:41:38;0.50;;;0.50;;
4061;SDS011;2046;47.064;15.456;2023-02-26T06:44:04;0.80;;;0.80;;
4061;SDS011;2046;47.064;15.456;2023-02-26T06:46:31;0.63;;;0.63;;
4061;SDS011;2046;47.064;15.456;2023-02-26T06:48:57;1.10;;;0.80;;
4061;SDS011;2046;47.064;15.456;2023-02-26T06:51:24;0.77;;;0.77;;
4061;SDS011;2046;47.064;15.456;2023-02-26T06:53:51;0.88;;;0.88;;
4061;SDS011;2046;47.064;15.456;2023-02-26T06:56:17;0.50;;;0.50;;
4061;SDS011;2046;47.064;15.456;2023-02-26T06:58:44;0.68;;;0.68;;
4061;SDS011;2046;47.064;15.456;2023-02-26T07:01:10;0.70;;;0.70;;
4061;SDS011;2046;47.064;15.456;2023-02-26T07:03:37;0.57;;;0.57;;
4061;SDS011;2046;47.064;15.456;2023-02-26T07:06:03;0.68;;;0.60;;
4061;SDS011;2046;47.064;15.456;2023-02-26T07:08:51;0.52;;;0.52;;
4061;SDS011;2046;47.064;15.456;2023-02-26T07:11:19;0.70;;;0.70;;
4061;SDS011;2046;47.064;15.456;2023-02-26T07:13:45;0.80;;;0.80;;
4061;SDS011;2046;47.064;15.456;2023-02-26T07:16:12;0.60;;;0.60;;
4061;SDS011;2046;47.064;15.456;2023-02-26T07:18:39;0.60;;;0.60;;
4061;SDS011;2046;47.064;15.456;2023-02-26T07:21:05;1.38;;;0.90;;
4061;SDS011;2046;47.064;15.456;2023-02-26T07:23:32;0.90;;;0.90;;
4061;SDS011;2046;47.064;15.456;2023-02-26T07:25:59;0.82;;;0.82;;
4061;SDS011;2046;47.064;15.456;2023-02-26T07:28:25;0.80;;;0.70;;
4061;SDS011;2046;47.064;15.456;2023-02-26T07:30:55;0.45;;;0.45;;
4061;SDS011;2046;47.064;15.456;2023-02-26T07:33:22;0.88;;;0.88;;
4061;SDS011;2046;47.064;15.456;2023-02-26T07:35:50;0.70;;;0.70;;
4061;SDS011;2046;47.064;15.456;2023-02-26T07:38:16;1.70;;;0.60;;
4061;SDS011;2046;47.064;15.456;2023-02-26T07:40:45;0.50;;;0.50;;
4061;SDS011;2046;47.064;15.456;2023-02-26T07:43:12;0.55;;;0.55;;
4061;SDS011;2046;47.064;15.456;2023-02-26T07:45:38;2.15;;;0.75;;
4061;SDS011;2046;47.064;15.456;2023-02-26T07:48:05;0.77;;;0.77;;
4061;SDS011;2046;47.064;15.456;2023-02-26T07:50:31;0.85;;;0.85;;
4061;SDS011;2046;47.064;15.456;2023-02-26T07:52:58;0.88;;;0.85;;
4061;SDS011;2046;47.064;15.456;2023-02-26T07:55:25;0.60;;;0.60;;
4061;SDS011;2046;47.064;15.456;2023-02-26T07:57:53;0.95;;;0.52;;
4061;SDS011;2046;47.064;15.456;2023-02-26T08:00:19;0.57;;;0.57;;
4061;SDS011;2046;47.064;15.456;2023-02-26T08:02:46;0.80;;;0.80;;
4061;SDS011;2046;47.064;15.456;2023-02-26T08:05:13;0.77;;;0.77;;
4061;SDS011;2046;47.064;15.456;2023-02-26T08:07:39;0.85;;;0.77;;
4061;SDS011;2046;47.064;15.456;2023-02-26T08:10:07;0.60;;;0.60;;
4061;SDS011;2046;47.064;15.456;2023-02-26T08:12:34;0.70;;;0.60;;
4061;SDS011;2046;47.064;15.456;2023-02-26T08:15:02;0.90;;;0.75;;
4061;SDS011;2046;47.064;15.456;2023-02-26T08:17:29;0.70;;;0.70;;
4061;SDS011;2046;47.064;15.456;2023-02-26T08:19:55;0.80;;;0.80;;
4061;SDS011;2046;47.064;15.456;2023-02-26T08:22:22;0.60;;;0.60;;
4061;SDS011;2046;47.064;15.456;2023-02-26T08:24:49;0.77;;;0.77;;
4061;SDS011;2046;47.064;15.456;2023-02-26T08:27:16;0.75;;;0.75;;
4061;SDS011;2046;47.064;15.456;2023-02-26T08:29:42;0.80;;;0.80;;
4061;SDS011;2046;47.064;15.456;2023-02-26T08:32:12;0.52;;;0.52;;
4061;SDS011;2046;47.064;15.456;2023-02-26T08:34:38;0.85;;;0.80;;
4061;SDS011;2046;47.064;15.456;2023-02-26T08:37:05;0.55;;;0.55;;
4061;SDS011;2046;47.064;15.456;2023-02-26T08:39:34;0.65;;;0.65;;
4061;SDS011;2046;47.064;15.456;2023-02-26T08:42:06;1.02;;;0.80;;
4061;SDS011;2046;47.064;15.456;2023-02-26T08:44:33;0.68;;;0.68;;
4061;SDS011;2046;47.064;15.456;2023-02-26T08:47:00;0.70;;;0.70;;
4061;SDS011;2046;47.064;15.456;2023-02-26T08:49:26;0.68;;;0.63;;
4061;SDS011;2046;47.064;15.456;2023-02-26T08:51:53;16.58;;;1.00;;
4061;SDS011;2046;47.064;15.456;2023-02-26T08:54:20;1.15;;;1.00;;
4061;SDS011;2046;47.064;15.456;2023-02-26T08:56:46;1.27;;;0.80;;
4061;SDS011;2046;47.064;15.456;2023-02-26T08:59:13;0.73;;;0.73;;
4061;SDS011;2046;47.064;15.456;2023-02-26T09:01:40;0.57;;;0.55;;
4061;SDS011;2046;47.064;15.456;2023-02-26T09:04:06;1.45;;;0.70;;
4061;SDS011;2046;47.064;15.456;2023-02-26T09:06:33;1.80;;;0.63;;
4061;SDS011;2046;47.064;15.456;2023-02-26T09:09:00;1.13;;;1.02;;
4061;SDS011;2046;47.064;15.456;2023-02-26T09:11:26;1.02;;;0.50;;
4061;SDS011;2046;47.064;15.456;2023-02-26T09:13:55;0.90;;;0.90;;
4061;SDS011;2046;47.064;15.456;2023-02-26T09:16:24;2.30;;;1.27;;
4061;SDS011;2046;47.064;15.456;2023-02-26T09:18:51;1.05;;;0.80;;
4061;SDS011;2046;47.064;15.456;2023-02-26T09:21:18;2.20;;;0.68;;
4061;SDS011;2046;47.064;15.456;2023-02-26T09:23:44;2.05;;;0.60;;
4061;SDS011;2046;47.064;15.456;2023-02-26T09:26:11;2.05;;;1.30;;
4061;SDS011;2046;47.064;15.456;2023-02-26T09:28:38;1.10;;;0.88;;
4061;SDS011;2046;47.064;15.456;2023-02-26T09:31:04;0.85;;;0.70;;
4061;SDS011;2046;47.064;15.456;2023-02-26T09:33:32;0.80;;;0.80;;
4061;SDS011;2046;47.064;15.456;2023-02-26T09:35:59;0.82;;;0.82;;
4061;SDS011;2046;47.064;15.456;2023-02-26T09:38:26;0.80;;;0.80;;
4061;SDS011;2046;47.064;15.456;2023-02-26T09:40:57;0.98;;;0.70;;
4061;SDS011;2046;47.064;15.456;2023-02-26T09:48:44;1.58;;;0.82;;
4061;SDS011;2046;47.064;15.456;2023-02-26T09:51:13;0.93;;;0.70;;
4061;SDS011;2046;47.064;15.456;2023-02-26T09:53:42;1.42;;;0.80;;
4061;SDS011;2046;47.064;15.456;2023-02-26T09:56:12;0.80;;;0.60;;
4061;SDS011;2046;47.064;15.456;2023-02-26T09:58:40;0.50;;;0.50;;
4061;SDS011;2046;47.064;15.456;2023-02-26T10:03:44;0.90;;;0.47;;
4061;SDS011;2046;47.064;15.456;2023-02-26T10:11:24;0.60;;;0.60;;
4061;SDS011;2046;47.064;15.456;2023-02-26T10:13:59;0.68;;;0.68;;
4061;SDS011;2046;47.064;15.456;2023-02-26T10:16:28;0.80;;;0.80;;
4061;SDS011;2046;47.064;15.456;2023-02-26T10:19:04;1.70;;;0.73;;
4061;SDS011;2046;47.064;15.456;2023-02-26T10:21:35;0.60;;;0.60;;
4061;SDS011;2046;47.064;15.456;2023-02-26T10:24:05;0.75;;;0.75;;
4061;SDS011;2046;47.064;15.456;2023-02-26T10:26:38;0.80;;;0.63;;
4061;SDS011;2046;47.064;15.456;2023-02-26T10:29:40;0.80;;;0.80;;
4061;SDS011;2046;47.064;15.456;2023-02-26T10:41:51;0.75;;;0.70;;
4061;SDS011;2046;47.064;15.456;2023-02-26T10:44:23;0.70;;;0.70;;
4061;SDS011;2046;47.064;15.456;2023-02-26T10:47:04;0.93;;;0.90;;
4061;SDS011;2046;47.064;15.456;2023-02-26T10:49:52;7.63;;;1.00;;
4061;SDS011;2046;47.064;15.456;2023-02-26T10:52:21;4.75;;;1.13;;
4061;SDS011;2046;47.064;15.456;2023-02-26T10:57:28;4.88;;;0.98;;
4061;SDS011;2046;47.064;15.456;2023-02-26T11:00:03;6.45;;;1.13;;
4061;SDS011;2046;47.064;15.456;2023-02-26T11:02:35;2.70;;;0.82;;
4061;SDS011;2046;47.064;15.456;2023-02-26T11:05:03;10.60;;;2.50;;
4061;SDS011;2046;47.064;15.456;2023-02-26T11:07:34;1.55;;;1.33;;
4061;SDS011;2046;47.064;15.456;2023-02-26T11:10:02;2.95;;;1.88;;
4061;SDS011;2046;47.064;15.456;2023-02-26T11:12:29;3.50;;;1.58;;
4061;SDS011;2046;47.064;15.456;2023-02-26T11:14:59;6.18;;;1.80;;
4061;SDS011;2046;47.064;15.456;2023-02-26T11:17:27;6.22;;;2.20;;
4061;SDS011;2046;47.064;15.456;2023-02-26T11:20:03;5.40;;;1.65;;
4061;SDS011;2046;47.064;15.456;2023-02-26T11:22:32;2.85;;;2.13;;
4061;SDS011;2046;47.064;15.456;2023-02-26T11:24:59;5.13;;;2.97;;
4061;SDS011;2046;47.064;15.456;2023-02-26T11:27:29;3.35;;;2.72;;
4061;SDS011;2046;47.064;15.456;2023-02-26T11:29:57;1.98;;;1.80;;
4061;SDS011;2046;47.064;15.456;2023-02-26T11:32:31;1.40;;;1.30;;
4061;SDS011;2046;47.064;15.456;2023-02-26T11:34:59;2.40;;;1.15;;
4061;SDS011;2046;47.064;15.456;2023-02-26T11:37:29;1.27;;;1.10;;
4061;SDS011;2046;47.064;15.456;2023-02-26T11:42:59;8.57;;;1.30;;
4061;SDS011;2046;47.064;15.456;2023-02-26T11:45:29;1.30;;;1.20;;
4061;SDS011;2046;47.064;15.456;2023-02-26T11:47:59;2.65;;;1.70;;
4061;SDS011;2046;47.064;15.456;2023-02-26T11:50:28;1.42;;;1.33;;
4061;SDS011;2046;47.064;15.456;2023-02-26T11:52:55;1.70;;;1.10;;
4061;SDS011;2046;47.064;15.456;2023-02-26T11:55:26;1.70;;;1.20;;
4061;SDS011;2046;47.064;15.456;2023-02-26T11:57:54;2.63;;;1.27;;
4061;SDS011;2046;47.064;15.456;2023-02-26T12:00:26;3.45;;;0.88;;
4061;SDS011;2046;47.064;15.456;2023-02-26T12:03:05;1.15;;;0.95;;
4061;SDS011;2046;47.064;15.456;2023-02-26T12:05:33;1.25;;;0.93;;
4061;SDS011;2046;47.064;15.456;2023-02-26T12:08:02;0.98;;;0.77;;
4061;SDS011;2046;47.064;15.456;2023-02-26T12:18:26;262.60;;;121.07;;
4061;SDS011;2046;47.064;15.456;2023-02-26T12:26:16;146.38;;;35.90;;
4061;SDS011;2046;47.064;15.456;2023-02-26T12:36:25;95.65;;;34.50;;
4061;SDS011;2046;47.064;15.456;2023-02-26T12:41:38;54.60;;;18.77;;
4061;SDS011;2046;47.064;15.456;2023-02-26T12:44:22;41.05;;;16.08;;
4061;SDS011;2046;47.064;15.456;2023-02-26T12:47:16;43.20;;;11.63;;
4061;SDS011;2046;47.064;15.456;2023-02-26T12:58:08;35.97;;;10.88;;
4061;SDS011;2046;47.064;15.456;2023-02-26T13:03:31;45.20;;;11.00;;
4061;SDS011;2046;47.064;15.456;2023-02-26T13:06:07;31.83;;;10.80;;
4061;SDS011;2046;47.064;15.456;2023-02-26T13:08:51;34.55;;;9.50;;
4061;SDS011;2046;47.064;15.456;2023-02-26T13:16:39;32.97;;;9.55;;
4061;SDS011;2046;47.064;15.456;2023-02-26T13:21:42;24.15;;;8.77;;
4061;SDS011;2046;47.064;15.456;2023-02-26T13:26:36;19.65;;;7.57;;
4061;SDS011;2046;47.064;15.456;2023-02-26T13:29:11;19.67;;;7.10;;
4061;SDS011;2046;47.064;15.456;2023-02-26T13:31:47;15.20;;;7.10;;
4061;SDS011;2046;47.064;15.456;2023-02-26T13:34:18;25.88;;;7.72;;
4061;SDS011;2046;47.064;15.456;2023-02-26T13:36:45;16.27;;;6.43;;
4061;SDS011;2046;47.064;15.456;2023-02-26T13:47:23;21.48;;;5.78;;
4061;SDS011;2046;47.064;15.456;2023-02-26T13:49:57;14.27;;;5.60;;
4061;SDS011;2046;47.064;15.456;2023-02-26T13:52:29;18.48;;;5.85;;
4061;SDS011;2046;47.064;15.456;2023-02-26T13:54:56;12.65;;;5.50;;
4061;SDS011;2046;47.064;15.456;2023-02-26T14:00:21;12.90;;;4.85;;
4061;SDS011;2046;47.064;15.456;2023-02-26T14:02:54;17.00;;;5.47;;
4061;SDS011;2046;47.064;15.456;2023-02-26T14:05:29;15.30;;;5.30;;
4061;SDS011;2046;47.064;15.456;2023-02-26T14:10:28;10.27;;;4.20;;
4061;SDS011;2046;47.064;15.456;2023-02-26T14:13:02;12.90;;;4.75;;
4061;SDS011;2046;47.064;15.456;2023-02-26T14:15:41;11.20;;;4.50;;
4061;SDS011;2046;47.064;15.456;2023-02-26T14:24:01;13.20;;;4.45;;
4061;SDS011;2046;47.064;15.456;2023-02-26T14:26:30;8.15;;;4.10;;
4061;SDS011;2046;47.064;15.456;2023-02-26T14:34:14;9.57;;;4.47;;
4061;SDS011;2046;47.064;15.456;2023-02-26T14:39:12;7.78;;;3.92;;
4061;SDS011;2046;47.064;15.456;2023-02-26T14:41:43;9.40;;;3.88;;
4061;SDS011;2046;47.064;15.456;2023-02-26T14:44:13;14.05;;;4.10;;
4061;SDS011;2046;47.064;15.456;2023-02-26T14:46:41;12.43;;;4.43;;
4061;SDS011;2046;47.064;15.456;2023-02-26T14:49:23;9.60;;;3.58;;
4061;SDS011;2046;47.064;15.456;2023-02-26T14:51:59;10.10;;;4.03;;
4061;SDS011;2046;47.064;15.456;2023-02-26T14:57:07;8.90;;;3.45;;
4061;SDS011;2046;47.064;15.456;2023-02-26T15:02:29;6.38;;;3.28;;
4061;SDS011;2046;47.064;15.456;2023-02-26T15:05:03;5.53;;;3.17;;
4061;SDS011;2046;47.064;15.456;2023-02-26T15:10:06;10.20;;;3.47;;
4061;SDS011;2046;47.064;15.456;2023-02-26T15:15:23;5.68;;;3.10;;
4061;SDS011;2046;47.064;15.456;2023-02-26T15:18:14;8.80;;;3.25;;
4061;SDS011;2046;47.064;15.456;2023-02-26T15:20:47;3.90;;;2.83;;
4061;SDS011;2046;47.064;15.456;2023-02-26T15:23:25;5.85;;;2.70;;
4061;SDS011;2046;47.064;15.456;2023-02-26T15:25:54;7.47;;;3.08;;
4061;SDS011;2046;47.064;15.456;2023-02-26T15:28:26;6.05;;;2.80;;
4061;SDS011;2046;47.064;15.456;2023-02-26T15:30:53;5.75;;;3.10;;
4061;SDS011;2046;47.064;15.456;2023-02-26T15:33:22;5.25;;;2.75;;
4061;SDS011;2046;47.064;15.456;2023-02-26T15:35:49;9.95;;;3.00;;
4061;SDS011;2046;47.064;15.456;2023-02-26T15:38:17;6.18;;;2.90;;
4061;SDS011;2046;47.064;15.456;2023-02-26T15:40:44;4.15;;;2.53;;
4061;SDS011;2046;47.064;15.456;2023-02-26T15:43:13;7.25;;;2.38;;
4061;SDS011;2046;47.064;15.456;2023-02-26T15:45:41;5.75;;;2.38;;
4061;SDS011;2046;47.064;15.456;2023-02-26T15:48:11;4.95;;;2.78;;
4061;SDS011;2046;47.064;15.456;2023-02-26T15:50:40;3.50;;;2.20;;
4061;SDS011;2046;47.064;15.456;2023-02-26T15:53:07;4.63;;;2.10;;
4061;SDS011;2046;47.064;15.456;2023-02-26T15:55:37;3.58;;;2.25;;
4061;SDS011;2046;47.064;15.456;2023-02-26T15:58:05;3.63;;;2.47;;
4061;SDS011;2046;47.064;15.456;2023-02-26T16:00:33;2.63;;;1.88;;
4061;SDS011;2046;47.064;15.456;2023-02-26T16:03:01;3.83;;;2.30;;
4061;SDS011;2046;47.064;15.456;2023-02-26T16:05:30;4.57;;;2.30;;
4061;SDS011;2046;47.064;15.456;2023-02-26T16:07:57;5.18;;;2.20;;
4061;SDS011;2046;47.064;15.456;2023-02-26T16:10:30;3.13;;;2.08;;
4061;SDS011;2046;47.064;15.456;2023-02-26T16:12:57;3.83;;;1.98;;
4061;SDS011;2046;47.064;15.456;2023-02-26T16:15:28;3.72;;;2.28;;
4061;SDS011;2046;47.064;15.456;2023-02-26T16:17:56;3.03;;;2.10;;
4061;SDS011;2046;47.064;15.456;2023-02-26T16:20:25;2.25;;;2.05;;
4061;SDS011;2046;47.064;15.456;2023-02-26T16:23:03;6.70;;;2.30;;
4061;SDS011;2046;47.064;15.456;2023-02-26T16:25:39;3.60;;;1.80;;
4061;SDS011;2046;47.064;15.456;2023-02-26T16:28:14;4.18;;;2.10;;
4061;SDS011;2046;47.064;15.456;2023-02-26T16:30:42;2.42;;;1.75;;
4061;SDS011;2046;47.064;15.456;2023-02-26T16:33:13;4.20;;;1.95;;
4061;SDS011;2046;47.064;15.456;2023-02-26T16:35:47;2.65;;;1.92;;
4061;SDS011;2046;47.064;15.456;2023-02-26T16:38:16;3.75;;;1.88;;
4061;SDS011;2046;47.064;15.456;2023-02-26T16:40:44;3.10;;;1.90;;
4061;SDS011;2046;47.064;15.456;2023-02-26T16:45:59;3.63;;;1.85;;
4061;SDS011;2046;47.064;15.456;2023-02-26T16:48:27;3.78;;;1.98;;
4061;SDS011;2046;47.064;15.456;2023-02-26T16:50:56;5.30;;;1.92;;
4061;SDS011;2046;47.064;15.456;2023-02-26T16:53:27;3.22;;;1.92;;
4061;SDS011;2046;47.064;15.456;2023-02-26T16:55:54;7.82;;;2.10;;
4061;SDS011;2046;47.064;15.456;2023-02-26T16:58:21;2.72;;;1.73;;
4061;SDS011;2046;47.064;15.456;2023-02-26T17:00:53;1.58;;;1.25;;
4061;SDS011;2046;47.064;15.456;2023-02-26T17:03:24;2.72;;;2.22;;
4061;SDS011;2046;47.064;15.456;2023-02-26T17:05:53;4.95;;;1.90;;
4061;SDS011;2046;47.064;15.456;2023-02-26T17:08:20;4.18;;;1.67;;
4061;SDS011;2046;47.064;15.456;2023-02-26T17:10:50;3.40;;;1.67;;
4061;SDS011;2046;47.064;15.456;2023-02-26T17:15:49;2.03;;;1.60;;
4061;SDS011;2046;47.064;15.456;2023-02-26T17:18:16;3.85;;;1.98;;
4061;SDS011;2046;47.064;15.456;2023-02-26T17:20:43;3.10;;;1.90;;
4061;SDS011;2046;47.064;15.456;2023-02-26T17:23:10;2.88;;;1.65;;
4061;SDS011;2046;47.064;15.456;2023-02-26T17:25:42;1.70;;;1.60;;
4061;SDS011;2046;47.064;15.456;2023-02-26T17:28:11;3.10;;;1.63;;
4061;SDS011;2046;47.064;15.456;2023-02-26T17:30:40;2.55;;;1.52;;
4061;SDS011;2046;47.064;15.456;2023-02-26T17:33:08;3.53;;;1.70;;
4061;SDS011;2046;47.064;15.456;2023-02-26T17:35:37;3.20;;;1.50;;
4061;SDS011;2046;47.064;15.456;2023-02-26T17:38:04;5.75;;;1.42;;
4061;SDS011;2046;47.064;15.456;2023-02-26T17:40:34;2.70;;;1.35;;
4061;SDS011;2046;47.064;15.456;2023-02-26T17:43:05;2.15;;;1.50;;
4061;SDS011;2046;47.064;15.456;2023-02-26T17:45:32;16.17;;;6.55;;